createdAt,value
2022-12-03T00:01:08.955Z,102565.34
2022-12-03T00:04:30.936Z,102555.72
2022-12-03T00:07:52.682Z,102552.22
2022-12-03T00:11:15.751Z,102560.97
2022-12-03T00:14:42.844Z,102553.06
2022-12-03T00:18:06.119Z,102553.06
2022-12-03T00:21:27.918Z,102554.84
2022-12-03T00:24:49.857Z,102552.28
2022-12-03T00:28:13.133Z,102559.25
2022-12-03T00:31:34.731Z,102557.50
2022-12-03T00:34:56.552Z,102547.81
2022-12-03T00:38:18.490Z,102549.59
2022-12-03T00:41:40.046Z,102542.63
2022-12-03T00:45:03.359Z,102547.84
2022-12-03T00:48:25.126Z,102555.75
2022-12-03T00:51:46.962Z,102544.34
2022-12-03T00:55:09.718Z,102546.13
2022-12-03T00:58:31.482Z,102544.34
2022-12-03T01:01:54.940Z,102544.41
2022-12-03T01:05:16.897Z,102549.66
2022-12-03T01:08:38.561Z,102547.88
2022-12-03T01:12:00.630Z,102545.22
2022-12-03T01:15:22.116Z,102542.63
2022-12-03T01:18:46.288Z,102545.25
2022-12-03T01:22:09.149Z,102541.72
2022-12-03T01:25:31.110Z,102553.13
2022-12-03T01:28:52.946Z,102539.16
2022-12-03T01:32:19.548Z,102551.38
2022-12-03T01:35:43.154Z,102531.28
2022-12-03T01:39:05.307Z,102533.91
2022-12-03T01:42:30.261Z,102531.28
2022-12-03T01:45:52.154Z,102538.25
2022-12-03T01:49:16.878Z,102532.13
2022-12-03T01:52:41.287Z,102544.34
2022-12-03T01:56:03.350Z,102538.22
2022-12-03T01:59:33.367Z,102535.63
2022-12-03T02:02:57.091Z,102543.50
2022-12-03T02:06:21.277Z,102535.69
2022-12-03T02:09:44.394Z,102536.53
2022-12-03T02:13:09.039Z,102541.81
2022-12-03T02:16:31.546Z,102533.13
2022-12-03T02:19:53.563Z,102540.97
2022-12-03T02:23:24.032Z,102536.59
2022-12-03T02:26:47.167Z,102533.06
2022-12-03T02:30:10.968Z,102535.69
2022-12-03T02:33:33.007Z,102529.59
2022-12-03T02:36:55.067Z,102528.72
2022-12-03T02:40:20.822Z,102530.44
2022-12-03T02:43:43.898Z,102530.41
2022-12-03T02:47:05.850Z,102526.09
2022-12-03T02:50:30.441Z,102535.69
2022-12-03T02:53:55.251Z,102534.84
2022-12-03T02:57:17.239Z,102525.25
2022-12-03T03:00:40.911Z,102524.38
2022-12-03T03:04:03.323Z,102526.09
2022-12-03T03:07:25.064Z,102521.75
2022-12-03T03:10:48.754Z,102526.16
2022-12-03T03:14:10.489Z,102525.28
2022-12-03T03:17:33.596Z,102513.09
2022-12-03T03:20:55.195Z,102513.97
2022-12-03T03:24:17.059Z,102511.34
2022-12-03T03:27:39.983Z,102513.94
2022-12-03T03:31:04.704Z,102512.22
2022-12-03T03:34:28.786Z,102507.88
2022-12-03T03:37:50.518Z,102499.97
2022-12-03T03:41:13.762Z,102498.28
2022-12-03T03:44:35.771Z,102494.81
2022-12-03T03:47:59.168Z,102490.50
2022-12-03T03:51:23.074Z,102490.53
2022-12-03T03:54:44.474Z,102487.91
2022-12-03T03:58:06.540Z,102480.94
2022-12-03T04:01:28.973Z,102480.03
2022-12-03T04:04:51.394Z,102482.59
2022-12-03T04:08:15.056Z,102479.13
2022-12-03T04:11:53.864Z,102473.94
2022-12-03T04:15:15.632Z,102478.28
2022-12-03T04:18:46.116Z,102471.28
2022-12-03T04:22:25.271Z,102474.72
2022-12-03T04:26:05.964Z,102478.19
2022-12-03T04:29:27.610Z,102476.41
2022-12-03T04:33:06.903Z,102473.78
2022-12-03T04:36:28.978Z,102474.69
2022-12-03T04:39:50.710Z,102465.94
2022-12-03T04:43:14.174Z,102465.91
2022-12-03T04:46:35.935Z,102468.50
2022-12-03T04:49:57.770Z,102474.63
2022-12-03T04:53:19.822Z,102472.94
2022-12-03T04:56:41.475Z,102471.22
2022-12-03T05:00:05.187Z,102471.22
2022-12-03T05:03:26.727Z,102460.75
2022-12-03T05:06:48.514Z,102455.47
2022-12-03T05:10:10.990Z,102458.16
2022-12-03T05:13:32.571Z,102459.91
2022-12-03T05:16:55.330Z,102458.13
2022-12-03T05:20:34.773Z,102458.13
2022-12-03T05:23:56.685Z,102449.41
2022-12-03T05:27:23.352Z,102449.41
2022-12-03T05:30:45.578Z,102452.03
2022-12-03T05:34:08.517Z,102454.66
2022-12-03T05:37:30.143Z,102452.91
2022-12-03T05:40:51.983Z,102450.25
2022-12-03T05:44:17.383Z,102451.13
2022-12-03T05:47:42.080Z,102449.41
2022-12-03T05:51:05.487Z,102447.69
2022-12-03T05:54:27.176Z,102444.16
2022-12-03T05:57:49.182Z,102442.38
2022-12-03T06:01:10.781Z,102444.13
2022-12-03T06:04:32.576Z,102442.38
2022-12-03T06:07:55.784Z,102442.34
2022-12-03T06:11:17.575Z,102437.97
2022-12-03T06:14:39.484Z,102435.34
2022-12-03T06:18:01.474Z,102436.25
2022-12-03T06:21:23.406Z,102440.59
2022-12-03T06:24:46.188Z,102438.03
2022-12-03T06:28:07.744Z,102438.06
2022-12-03T06:31:29.833Z,102438.91
2022-12-03T06:34:51.946Z,102437.22
2022-12-03T06:38:13.629Z,102447.69
2022-12-03T06:41:36.893Z,102440.69
2022-12-03T06:44:58.351Z,102437.22
2022-12-03T06:48:20.158Z,102438.06
2022-12-03T06:51:42.058Z,102439.81
2022-12-03T06:55:04.015Z,102438.97
2022-12-03T06:58:27.235Z,102446.84
2022-12-03T07:01:49.349Z,102445.06
2022-12-03T07:05:11.411Z,102439.84
2022-12-03T07:08:33.405Z,102438.09
2022-12-03T07:11:55.328Z,102435.44
2022-12-03T07:15:18.719Z,102427.59
2022-12-03T07:18:40.514Z,102428.47
2022-12-03T07:22:02.394Z,102432.84
2022-12-03T07:25:24.297Z,102433.72
2022-12-03T07:28:46.697Z,102430.22
2022-12-03T07:32:09.991Z,102432.84
2022-12-03T07:35:31.607Z,102426.75
2022-12-03T07:38:53.426Z,102431.13
2022-12-03T07:42:15.077Z,102434.63
2022-12-03T07:45:36.994Z,102426.84
2022-12-03T07:49:00.133Z,102431.25
2022-12-03T07:52:21.631Z,102432.16
2022-12-03T07:55:43.562Z,102436.50
2022-12-03T07:59:05.503Z,102428.66
2022-12-03T08:02:27.635Z,102428.69
2022-12-03T08:05:50.953Z,102426.06
2022-12-03T08:09:15.982Z,102433.94
2022-12-03T08:12:43.353Z,102426.97
2022-12-03T08:16:15.946Z,102423.50
2022-12-03T08:19:37.986Z,102430.53
2022-12-03T08:23:04.851Z,102429.63
2022-12-03T08:26:28.861Z,102429.63
2022-12-03T08:29:51.065Z,102422.66
2022-12-03T08:33:27.056Z,102425.28
2022-12-03T08:36:51.919Z,102416.59
2022-12-03T08:40:34.540Z,102423.59
2022-12-03T08:43:56.522Z,102419.25
2022-12-03T08:47:22.297Z,102412.28
2022-12-03T08:50:44.283Z,102420.97
2022-12-03T08:54:13.771Z,102416.59
2022-12-03T08:57:37.370Z,102416.59
2022-12-03T09:01:06.916Z,102423.59
2022-12-03T09:04:32.147Z,102420.09
2022-12-03T09:07:53.839Z,102418.31
2022-12-03T09:11:15.542Z,102417.44
2022-12-03T09:14:38.388Z,102423.53
2022-12-03T09:18:00.207Z,102412.16
2022-12-03T09:21:21.858Z,102418.25
2022-12-03T09:24:43.936Z,102419.97
2022-12-03T09:28:05.937Z,102414.75
2022-12-03T09:31:29.056Z,102409.50
2022-12-03T09:34:51.170Z,102413.00
2022-12-03T09:38:13.053Z,102413.84
2022-12-03T09:41:35.640Z,102404.25
2022-12-03T09:44:57.546Z,102409.50
2022-12-03T09:48:22.472Z,102406.84
2022-12-03T09:51:45.516Z,102391.94
2022-12-03T09:55:15.156Z,102396.28
2022-12-03T09:58:37.295Z,102388.44
2022-12-03T10:02:00.290Z,102397.06
2022-12-03T10:05:24.579Z,102385.72
2022-12-03T10:08:49.239Z,102383.03
2022-12-03T10:12:14.383Z,102373.38
2022-12-03T10:15:36.019Z,102379.44
2022-12-03T10:19:00.697Z,102375.88
2022-12-03T10:22:23.811Z,102374.94
2022-12-03T10:25:52.580Z,102370.59
2022-12-03T10:29:15.400Z,102366.22
2022-12-03T10:32:42.531Z,102366.22
2022-12-03T10:36:28.856Z,102364.50
2022-12-03T10:39:57.652Z,102356.63
2022-12-03T10:43:24.239Z,102348.75
2022-12-03T10:46:47.106Z,102351.38
2022-12-03T10:50:18.057Z,102349.66
2022-12-03T10:53:42.275Z,102348.75
2022-12-03T10:57:05.503Z,102346.16
2022-12-03T11:00:27.217Z,102339.13
2022-12-03T11:03:49.701Z,102334.75
2022-12-03T11:07:16.253Z,102335.59
2022-12-03T11:10:38.020Z,102334.75
2022-12-03T11:14:02.650Z,102332.09
2022-12-03T11:17:48.922Z,102333.81
2022-12-03T11:21:12.420Z,102325.03
2022-12-03T11:24:36.047Z,102322.41
2022-12-03T11:28:37.611Z,102324.16
2022-12-03T11:32:01.492Z,102322.41
2022-12-03T11:35:28.888Z,102311.03
2022-12-03T11:38:56.673Z,102298.78
2022-12-03T11:42:30.491Z,102299.66
2022-12-03T11:45:53.210Z,102302.28
2022-12-03T11:49:34.449Z,102297.09
2022-12-03T11:53:00.210Z,102295.28
2022-12-03T11:56:25.610Z,102289.22
2022-12-03T11:59:59.143Z,102290.03
2022-12-03T12:03:29.262Z,102287.41
2022-12-03T12:06:53.528Z,102290.03
2022-12-03T12:10:16.128Z,102289.97
2022-12-03T12:13:54.439Z,102284.72
2022-12-03T12:17:31.841Z,102284.69
2022-12-03T12:20:53.758Z,102281.22
2022-12-03T12:24:46.840Z,102289.94
2022-12-03T12:28:09.399Z,102289.06
2022-12-03T12:31:31.485Z,102283.84
2022-12-03T12:34:58.291Z,102279.47
2022-12-03T12:38:21.817Z,102282.06
2022-12-03T12:41:50.038Z,102273.28
2022-12-03T12:45:17.579Z,102275.03
2022-12-03T12:48:39.770Z,102263.69
2022-12-03T12:52:01.653Z,102261.06
2022-12-03T12:55:24.359Z,102258.44
2022-12-03T12:58:47.762Z,102267.16
2022-12-03T13:02:38.099Z,102265.41
2022-12-03T13:06:00.121Z,102260.16
2022-12-03T13:09:24.688Z,102266.25
2022-12-03T13:12:46.434Z,102264.53
2022-12-03T13:16:14.301Z,102262.78
2022-12-03T13:19:46.237Z,102256.66
2022-12-03T13:23:27.242Z,102257.53
2022-12-03T13:26:48.862Z,102258.44
2022-12-03T13:30:16.719Z,102250.56
2022-12-03T13:33:40.251Z,102247.03
2022-12-03T13:37:03.231Z,102250.50
2022-12-03T13:40:27.777Z,102255.75
2022-12-03T13:43:49.526Z,102243.53
2022-12-03T13:47:15.583Z,102249.66
2022-12-03T13:50:39.928Z,102235.75
2022-12-03T13:54:01.840Z,102240.16
2022-12-03T13:57:23.741Z,102242.00
2022-12-03T14:00:45.542Z,102242.81
2022-12-03T14:04:07.442Z,102241.06
2022-12-03T14:07:30.417Z,102241.94
2022-12-03T14:10:54.282Z,102237.50
2022-12-03T14:14:20.122Z,102241.00
2022-12-03T14:17:41.974Z,102233.19
2022-12-03T14:21:04.036Z,102233.19
2022-12-03T14:24:27.377Z,102228.84
2022-12-03T14:27:48.976Z,102234.06
2022-12-03T14:31:10.975Z,102229.72
2022-12-03T14:34:32.360Z,102228.84
2022-12-03T14:37:54.079Z,102226.22
2022-12-03T14:41:34.680Z,102226.28
2022-12-03T14:44:56.682Z,102220.13
2022-12-03T14:48:18.476Z,102225.34
2022-12-03T14:51:40.163Z,102224.47
2022-12-03T14:55:01.962Z,102228.00
2022-12-03T14:58:26.448Z,102226.28
2022-12-03T15:01:48.281Z,102231.47
2022-12-03T15:05:10.303Z,102238.50
2022-12-03T15:08:31.926Z,102239.34
2022-12-03T15:11:53.495Z,102245.47
2022-12-03T15:15:18.235Z,102241.13
2022-12-03T15:18:39.727Z,102230.69
2022-12-03T15:22:01.538Z,102241.13
2022-12-03T15:25:25.472Z,102237.66
2022-12-03T15:28:48.490Z,102236.81
2022-12-03T15:32:11.883Z,102245.53
2022-12-03T15:35:33.923Z,102243.78
2022-12-03T15:38:56.482Z,102239.41
2022-12-03T15:42:18.181Z,102231.53
2022-12-03T15:45:40.865Z,102232.44
2022-12-03T15:49:04.199Z,102235.88
2022-12-03T15:52:25.914Z,102232.44
2022-12-03T15:55:47.866Z,102233.31
2022-12-03T15:59:09.832Z,102228.97
2022-12-03T16:02:34.007Z,102233.31
2022-12-03T16:05:57.185Z,102239.41
2022-12-03T16:09:23.741Z,102242.00
2022-12-03T16:12:49.457Z,102240.28
2022-12-03T16:16:11.073Z,102231.59
2022-12-03T16:19:32.794Z,102233.38
2022-12-03T16:23:12.158Z,102235.06
2022-12-03T16:26:33.686Z,102229.75
2022-12-03T16:29:56.752Z,102234.16
2022-12-03T16:33:22.627Z,102228.84
2022-12-03T16:36:47.248Z,102230.63
2022-12-03T16:40:12.306Z,102233.25
2022-12-03T16:43:38.444Z,102227.16
2022-12-03T16:47:01.508Z,102223.72
2022-12-03T16:50:29.357Z,102219.38
2022-12-03T16:53:52.491Z,102228.06
2022-12-03T16:57:16.355Z,102223.72
2022-12-03T17:00:38.303Z,102223.66
2022-12-03T17:04:00.151Z,102221.03
2022-12-03T17:07:22.171Z,102223.59
2022-12-03T17:10:44.161Z,102223.59
2022-12-03T17:14:07.340Z,102221.88
2022-12-03T17:17:29.152Z,102220.97
2022-12-03T17:20:50.856Z,102211.38
2022-12-03T17:24:12.746Z,102220.97
2022-12-03T17:27:34.665Z,102214.81
2022-12-03T17:30:58.037Z,102204.38
2022-12-03T17:34:20.250Z,102203.47
2022-12-03T17:37:42.214Z,102212.19
2022-12-03T17:41:04.315Z,102216.59
2022-12-03T17:44:26.018Z,102218.34
2022-12-03T17:47:50.310Z,102213.97
2022-12-03T17:51:12.133Z,102211.28
2022-12-03T17:54:49.337Z,102216.41
2022-12-03T17:58:15.346Z,102204.13
2022-12-03T18:01:37.249Z,102209.28
2022-12-03T18:05:00.615Z,102211.78
2022-12-03T18:08:22.641Z,102212.63
2022-12-03T18:11:44.554Z,102205.56
2022-12-03T18:15:07.199Z,102209.84
2022-12-03T18:18:28.899Z,102215.94
2022-12-03T18:21:52.115Z,102210.69
2022-12-03T18:25:14.594Z,102209.84
2022-12-03T18:28:36.253Z,102213.31
2022-12-03T18:31:58.245Z,102207.22
2022-12-03T18:35:20.708Z,102218.56
2022-12-03T18:38:43.667Z,102208.13
2022-12-03T18:42:14.426Z,102207.34
2022-12-03T18:45:36.401Z,102214.25
2022-12-03T18:48:58.150Z,102214.25
2022-12-03T18:52:22.549Z,102204.66
2022-12-03T18:55:46.793Z,102206.38
2022-12-03T18:59:09.151Z,102205.50
2022-12-03T19:03:02.616Z,102203.78
2022-12-03T19:06:18.759Z,102205.56
2022-12-03T19:09:41.108Z,102209.03
2022-12-03T19:13:04.764Z,102201.16
2022-12-03T19:16:26.539Z,102208.19
2022-12-03T19:19:48.189Z,102217.78
2022-12-03T19:23:10.288Z,102214.34
2022-12-03T19:26:32.141Z,102210.00
2022-12-03T19:29:55.815Z,102209.97
2022-12-03T19:33:18.300Z,102209.09
2022-12-03T19:36:40.158Z,102216.97
2022-12-03T19:40:01.700Z,102216.06
2022-12-03T19:43:23.484Z,102220.47
2022-12-03T19:46:46.934Z,102218.75
2022-12-03T19:50:09.710Z,102210.81
2022-12-03T19:53:32.331Z,102210.81
2022-12-03T19:56:54.028Z,102210.81
2022-12-03T20:00:17.043Z,102214.28
2022-12-03T20:03:41.209Z,102212.53
2022-12-03T20:07:02.993Z,102205.56
2022-12-03T20:10:25.425Z,102214.28
2022-12-03T20:13:48.411Z,102205.50
2022-12-03T20:17:09.850Z,102214.25
2022-12-03T20:20:33.078Z,102209.84
2022-12-03T20:23:54.789Z,102212.47
2022-12-03T20:27:22.476Z,102208.06
2022-12-03T20:30:45.645Z,102207.22
2022-12-03T20:34:07.404Z,102215.09
2022-12-03T20:37:31.854Z,102215.97
2022-12-03T20:40:53.579Z,102214.19
2022-12-03T20:44:15.190Z,102208.06
2022-12-03T20:47:37.154Z,102217.72
2022-12-03T20:50:58.880Z,102216.81
2022-12-03T20:54:22.069Z,102211.50
2022-12-03T20:57:43.869Z,102208.94
2022-12-03T21:01:15.435Z,102211.56
2022-12-03T21:04:37.775Z,102217.66
2022-12-03T21:07:59.868Z,102211.50
2022-12-03T21:11:24.962Z,102215.81
2022-12-03T21:14:47.067Z,102220.13
2022-12-03T21:18:10.190Z,102223.56
2022-12-03T21:21:31.584Z,102216.53
2022-12-03T21:24:53.424Z,102213.06
2022-12-03T21:28:16.628Z,102211.25
2022-12-03T21:31:39.943Z,102204.16
2022-12-03T21:35:01.783Z,102208.50
2022-12-03T21:38:23.572Z,102211.97
2022-12-03T21:42:19.147Z,102204.91
2022-12-03T21:45:28.474Z,102201.38
2022-12-03T21:48:50.286Z,102203.09
2022-12-03T21:52:11.878Z,102203.16
2022-12-03T21:55:33.567Z,102196.13
2022-12-03T21:58:56.397Z,102193.50
2022-12-03T22:02:19.650Z,102198.72
2022-12-03T22:05:41.207Z,102188.19
2022-12-03T22:09:03.131Z,102188.16
2022-12-03T22:12:25.165Z,102183.81
2022-12-03T22:15:46.891Z,102187.41
2022-12-03T22:19:10.287Z,102189.13
2022-12-03T22:22:32.581Z,102190.03
2022-12-03T22:25:59.288Z,102188.31
2022-12-03T22:29:20.921Z,102187.41
2022-12-03T22:32:42.859Z,102193.56
2022-12-03T22:36:09.716Z,102186.53
2022-12-03T22:39:34.082Z,102179.53
2022-12-03T22:42:55.852Z,102177.81
2022-12-03T22:46:18.272Z,102184.81
2022-12-03T22:49:40.136Z,102178.72
2022-12-03T22:53:03.170Z,102173.50
2022-12-03T22:56:25.750Z,102167.34
2022-12-03T22:59:47.316Z,102161.25
2022-12-03T23:03:09.693Z,102168.22
2022-12-03T23:06:32.465Z,102174.31
2022-12-03T23:09:56.145Z,102174.31
2022-12-03T23:13:19.591Z,102171.75
2022-12-03T23:16:42.191Z,102174.31
2022-12-03T23:20:04.266Z,102172.56
2022-12-03T23:23:28.162Z,102173.47
2022-12-03T23:26:51.410Z,102169.13
2022-12-03T23:30:15.570Z,102169.06
2022-12-03T23:33:38.696Z,102160.25
2022-12-03T23:37:00.478Z,102153.22
2022-12-03T23:40:22.005Z,102151.41
2022-12-03T23:43:45.274Z,102151.34
2022-12-03T23:47:07.161Z,102153.06
2022-12-03T23:50:29.790Z,102149.53
2022-12-03T23:53:52.811Z,102150.38
2022-12-03T23:57:15.944Z,102145.94
